CYDB

Burwash Airport

Burwash, , Canada
METAR CYDB 170200Z AUTO VRB02KT 9SM BKN140 BKN160 M10/M11 A2914 RMK SLP917
Observed Flight Rules
Dec-17 @ 02:00 UTC (33 minutes ago) Visual Flight Rules
Wind Visibility Clouds
Variable at 2 knots 9 miles
  • Broken at 14,000' AGL
  • Broken at 16,000' AGL
Temperatures Readings
Current -10°C / 14°F
Dewpoint -11°C / 12°F
Humidity 92%
Altimeter 29.14" Hg
Pressure 991.7 hPa
Elevation 801
METAR CYDB 170200Z AUTO VRB02KT 9SM BKN140 BKN160 M10/M11 A2914 RMK SLP917
Observed Flight Rules
Dec-17 @ 02:00 UTC
(33 minutes ago)
VFR
Wind Visibility
Variable at 2 knots 9 miles
Clouds
  • Broken at 14,000' AGL
  • Broken at 16,000' AGL
Temperature Dewpoint
-10°C / 14°F -11°C / 12°F
Humidity Altimeter Pressure
92% 29.14" Hg 991.7 hPa